Disclaimer

Please do not use the information listed here in-flight or in-navigation, as they are not provided to us by the airports but are provided by volunteers, so they might be outdated.

Search


Regions


Airport information page

Radio informations:
RIO TWR - 118.7 MHz
Ground (GND) - 121.7 MHz
TFC - 121.05 MHz
Automatic Terminal Information Service (ATIS) - 132.65 MHz
RIO CON - 119.35 MHz

Airport informations:
Latitude: 22° 54' 37.66" S
Longitude: 043° 09' 47.28" W
Elevation: 11 feet - 3 meters
Operating hours: 24 hour operations
Operating agency: Military-civil joint use airport
Timezone: UTC-3(-2DT)
Fuel: Jet A1, without icing nhibitor.

100/130 octane gasoline, leaded, MIL-L-5572F (GREEN)

Runway information:
02R/20L - 4341 x 138 feet< - >1323 x 42 meters
02L/20R - 4134 x 98 feet< - >1260 x 30 meters

Recent METARs:
SBRJ 202000Z 18003KT 6000 BKN015 OVC030 20/17 Q1018
SBRJ 202000Z 18003KT 6000 BKN015 OVC030 20/17 Q1018
SBRJ 202000Z 18003KT 6000 BKN015 OVC030 20/17 Q1018

Airport on the map: